Time;durP1;ratioP1;P1;durP2;ratioP2;P2;SDS_P1;SDS_P2;PMS_P1;PMS_P2;Temp;Humidity;BMP_temperature;BMP_pressure;BME280_temperature;BME280_humidity;BME280_pressure;Samples;Min_cycle;Max_cycle;Signal;HPM_P1;HPM_P2
2023/04/04 00:00:52;;;;;;;25.83;9.52;;;;;;;;;;5114015;28;20107;-65
2023/04/04 00:03:18;;;;;;;27.30;9.10;;;;;;;;;;5113731;28;20039;-62
2023/04/04 00:05:44;;;;;;;26.05;9.32;;;;;;;;;;5113670;28;20550;-67
2023/04/04 00:08:09;;;;;;;30.77;10.25;;;;;;;;;;5114074;28;20428;-69
2023/04/04 00:10:34;;;;;;;31.02;11.52;;;;;;;;;;5113820;28;20485;-69
2023/04/04 00:13:00;;;;;;;28.45;10.18;;;;;;;;;;5113819;28;20100;-73
2023/04/04 00:15:26;;;;;;;32.60;11.95;;;;;;;;;;5113744;28;20133;-63
2023/04/04 00:17:51;;;;;;;30.95;11.98;;;;;;;;;;5113527;28;20020;-74
2023/04/04 00:20:17;;;;;;;27.92;10.50;;;;;;;;;;5113868;28;20520;-77
2023/04/04 00:22:43;;;;;;;27.65;10.50;;;;;;;;;;5113745;28;20023;-76
2023/04/04 00:25:09;;;;;;;31.90;10.80;;;;;;;;;;5113537;28;20027;-75
2023/04/04 00:27:35;;;;;;;25.90;10.52;;;;;;;;;;5113606;28;20394;-73
2023/04/04 00:30:00;;;;;;;30.77;11.23;;;;;;;;;;5113512;28;20032;-74
2023/04/04 00:32:26;;;;;;;43.10;12.05;;;;;;;;;;5113363;28;20027;-76
2023/04/04 00:34:56;;;;;;;41.72;11.38;;;;;;;;;;5113453;28;20115;-75
2023/04/04 00:37:22;;;;;;;41.00;12.30;;;;;;;;;;5113472;28;20027;-79
2023/04/04 00:39:48;;;;;;;41.55;12.65;;;;;;;;;;5113272;28;20059;-76
2023/04/04 00:42:14;;;;;;;36.97;11.93;;;;;;;;;;5113314;27;20031;-70
2023/04/04 00:44:39;;;;;;;39.65;11.63;;;;;;;;;;5113369;28;20096;-62
2023/04/04 00:47:05;;;;;;;40.63;11.35;;;;;;;;;;5112559;28;20067;-75
2023/04/04 00:49:32;;;;;;;32.35;11.57;;;;;;;;;;5113071;28;20051;-69
2023/04/04 00:51:58;;;;;;;31.60;10.93;;;;;;;;;;5112964;28;20031;-66
2023/04/04 00:54:24;;;;;;;33.83;10.35;;;;;;;;;;5112980;28;20374;-69
2023/04/04 00:56:54;;;;;;;36.45;10.57;;;;;;;;;;5112984;28;20031;-73
2023/04/04 00:59:21;;;;;;;31.50;10.60;;;;;;;;;;5112822;28;20093;-64
2023/04/04 01:01:47;;;;;;;31.73;10.43;;;;;;;;;;5112606;28;20411;-63
2023/04/04 01:04:12;;;;;;;31.08;11.13;;;;;;;;;;5112731;28;20035;-66
2023/04/04 01:06:38;;;;;;;27.85;10.35;;;;;;;;;;5112719;28;20050;-64
2023/04/04 01:09:04;;;;;;;24.50;10.10;;;;;;;;;;5112716;28;20019;-64
2023/04/04 01:11:30;;;;;;;22.33;8.48;;;;;;;;;;5112773;28;20038;-73
2023/04/04 01:13:56;;;;;;;31.17;10.52;;;;;;;;;;5112646;28;20030;-76
2023/04/04 01:16:22;;;;;;;24.77;8.48;;;;;;;;;;5112339;28;20449;-70
2023/04/04 01:18:49;;;;;;;25.48;9.35;;;;;;;;;;5112593;28;20090;-69
2023/04/04 01:21:20;;;;;;;22.00;8.45;;;;;;;;;;5112437;28;20028;-71
2023/04/04 01:24:02;;;;;;;25.15;8.57;;;;;;;;;;5112586;27;20019;-70
2023/04/04 01:26:28;;;;;;;21.95;8.25;;;;;;;;;;5112373;28;20036;-75
2023/04/04 01:28:55;;;;;;;23.48;8.48;;;;;;;;;;5112522;28;20019;-77
2023/04/04 01:31:36;;;;;;;23.67;8.85;;;;;;;;;;5112172;28;20450;-77
2023/04/04 01:34:15;;;;;;;18.58;8.15;;;;;;;;;;5112383;28;20026;-68
2023/04/04 01:37:01;;;;;;;26.48;9.15;;;;;;;;;;5112459;27;20065;-68
2023/04/04 01:39:39;;;;;;;27.65;10.43;;;;;;;;;;5112184;27;20047;-69
2023/04/04 01:42:05;;;;;;;36.95;11.50;;;;;;;;;;5112313;28;20397;-72
2023/04/04 01:44:31;;;;;;;28.92;10.50;;;;;;;;;;5111995;28;20110;-71
2023/04/04 01:46:56;;;;;;;32.13;10.60;;;;;;;;;;5111733;28;20062;-70
2023/04/04 01:49:22;;;;;;;33.90;10.73;;;;;;;;;;5111871;28;20051;-69
2023/04/04 01:51:50;;;;;;;39.25;12.20;;;;;;;;;;5111954;28;20077;-66
2023/04/04 01:54:17;;;;;;;29.08;10.32;;;;;;;;;;5112078;28;20462;-66
2023/04/04 01:56:43;;;;;;;29.50;9.70;;;;;;;;;;5111833;28;20034;-62
2023/04/04 01:59:09;;;;;;;32.95;12.02;;;;;;;;;;5110734;28;20114;-69
2023/04/04 02:01:35;;;;;;;35.75;13.63;;;;;;;;;;5102014;28;20024;-62
2023/04/04 02:04:01;;;;;;;37.60;12.18;;;;;;;;;;5091308;28;20147;-69
2023/04/04 02:06:27;;;;;;;31.73;11.85;;;;;;;;;;5091219;28;20085;-67
2023/04/04 02:08:52;;;;;;;31.95;10.63;;;;;;;;;;5091452;28;20032;-62
2023/04/04 02:11:21;;;;;;;25.42;10.40;;;;;;;;;;5091423;28;20020;-62
2023/04/04 02:13:47;;;;;;;23.27;9.52;;;;;;;;;;5091075;28;20497;-63
2023/04/04 02:16:12;;;;;;;28.77;12.27;;;;;;;;;;5091371;28;20016;-62
2023/04/04 02:18:38;;;;;;;27.23;13.05;;;;;;;;;;5091331;28;20039;-77
2023/04/04 02:21:03;;;;;;;71.28;35.38;;;;;;;;;;5091188;28;20490;-69
2023/04/04 02:23:29;;;;;;;63.40;34.40;;;;;;;;;;5091284;28;20056;-62
2023/04/04 02:25:54;;;;;;;34.28;19.48;;;;;;;;;;5091142;28;20028;-63
2023/04/04 02:28:20;;;;;;;26.67;11.55;;;;;;;;;;5091045;28;20066;-70
2023/04/04 02:30:46;;;;;;;20.40;8.88;;;;;;;;;;5091195;28;20100;-69
2023/04/04 02:33:11;;;;;;;27.00;9.70;;;;;;;;;;5091169;28;20082;-63
2023/04/04 02:35:37;;;;;;;23.90;9.68;;;;;;;;;;5091294;28;20065;-67
2023/04/04 02:38:02;;;;;;;17.83;9.18;;;;;;;;;;5091111;28;20024;-67
2023/04/04 02:40:27;;;;;;;33.10;11.52;;;;;;;;;;5091230;28;20020;-75
2023/04/04 02:42:53;;;;;;;28.58;10.27;;;;;;;;;;5090978;28;20051;-73
2023/04/04 02:45:18;;;;;;;21.27;9.45;;;;;;;;;;5091054;28;20020;-75
2023/04/04 02:47:49;;;;;;;20.40;10.00;;;;;;;;;;5091061;28;20080;-75
2023/04/04 02:50:15;;;;;;;25.42;10.05;;;;;;;;;;5091213;28;20040;-76
2023/04/04 02:52:40;;;;;;;25.63;10.13;;;;;;;;;;5091175;28;20451;-74
2023/04/04 02:55:07;;;;;;;25.55;10.25;;;;;;;;;;5091159;28;20471;-66
2023/04/04 02:57:33;;;;;;;21.63;9.57;;;;;;;;;;5090482;28;20394;-62
2023/04/04 02:59:58;;;;;;;18.42;8.13;;;;;;;;;;5090833;28;20024;-73
2023/04/04 03:02:24;;;;;;;20.17;8.00;;;;;;;;;;5090939;28;20012;-75
2023/04/04 03:04:49;;;;;;;18.83;6.97;;;;;;;;;;5090909;28;20471;-73
2023/04/04 03:07:15;;;;;;;19.08;7.53;;;;;;;;;;5090765;28;20031;-71
2023/04/04 03:09:43;;;;;;;34.25;11.68;;;;;;;;;;5091913;28;20024;-73
2023/04/04 03:12:11;;;;;;;31.17;11.38;;;;;;;;;;5094496;28;20032;-74
2023/04/04 03:14:37;;;;;;;24.27;9.55;;;;;;;;;;5094567;28;20177;-77
2023/04/04 03:17:03;;;;;;;26.10;9.85;;;;;;;;;;5094618;28;20490;-71
2023/04/04 03:19:29;;;;;;;21.75;8.45;;;;;;;;;;5094615;28;20021;-68
2023/04/04 03:21:54;;;;;;;27.00;9.73;;;;;;;;;;5094438;28;20020;-73
2023/04/04 03:24:19;;;;;;;21.33;8.05;;;;;;;;;;5094441;28;20383;-71
2023/04/04 03:26:45;;;;;;;27.77;7.95;;;;;;;;;;5093608;28;20035;-70
2023/04/04 03:29:10;;;;;;;22.83;8.45;;;;;;;;;;5094500;28;20020;-65
2023/04/04 03:31:36;;;;;;;27.42;9.57;;;;;;;;;;5094350;28;20058;-65
2023/04/04 03:34:03;;;;;;;22.65;8.52;;;;;;;;;;5094362;28;20085;-72
2023/04/04 03:36:29;;;;;;;29.27;7.70;;;;;;;;;;5094231;28;20028;-63
2023/04/04 03:38:54;;;;;;;23.70;8.13;;;;;;;;;;5094199;28;20020;-65
2023/04/04 03:41:20;;;;;;;19.88;8.65;;;;;;;;;;5093637;28;20103;-68
2023/04/04 03:43:45;;;;;;;25.50;9.57;;;;;;;;;;5094008;28;20032;-68
2023/04/04 03:46:11;;;;;;;25.58;10.13;;;;;;;;;;5094010;28;20107;-69
2023/04/04 03:48:36;;;;;;;29.33;10.35;;;;;;;;;;5094025;28;20055;-63
2023/04/04 03:51:03;;;;;;;30.35;12.40;;;;;;;;;;5093837;28;20471;-71
2023/04/04 03:53:29;;;;;;;28.45;10.85;;;;;;;;;;5093850;28;20416;-72
2023/04/04 03:55:55;;;;;;;30.10;11.52;;;;;;;;;;5093502;28;20036;-75
2023/04/04 03:58:21;;;;;;;30.15;10.60;;;;;;;;;;5093615;28;20028;-63
2023/04/04 04:00:47;;;;;;;26.17;11.45;;;;;;;;;;5093678;28;20432;-68
2023/04/04 04:03:12;;;;;;;26.10;11.02;;;;;;;;;;5093759;28;20450;-69
2023/04/04 04:05:38;;;;;;;25.70;11.40;;;;;;;;;;5093565;28;20052;-63
2023/04/04 04:08:04;;;;;;;24.10;9.93;;;;;;;;;;5093733;28;20432;-69
2023/04/04 04:10:29;;;;;;;23.65;10.07;;;;;;;;;;5093254;28;20032;-64
2023/04/04 04:12:55;;;;;;;29.50;10.77;;;;;;;;;;5093452;28;20103;-70
2023/04/04 04:15:21;;;;;;;27.40;10.93;;;;;;;;;;5093360;28;20024;-65
2023/04/04 04:17:46;;;;;;;28.73;11.35;;;;;;;;;;5093359;28;20421;-64
2023/04/04 04:20:12;;;;;;;19.10;9.65;;;;;;;;;;5091866;28;20081;-63
2023/04/04 04:22:37;;;;;;;21.58;9.45;;;;;;;;;;5092811;28;20020;-68
2023/04/04 04:25:03;;;;;;;20.42;10.13;;;;;;;;;;5093098;28;20048;-68
2023/04/04 04:27:29;;;;;;;21.67;9.45;;;;;;;;;;5092900;28;20505;-72
2023/04/04 04:29:55;;;;;;;20.27;8.80;;;;;;;;;;5092944;28;20024;-73
2023/04/04 04:32:21;;;;;;;19.23;8.57;;;;;;;;;;5092880;28;20035;-63
2023/04/04 04:34:46;;;;;;;18.95;7.85;;;;;;;;;;5093015;28;20039;-66
2023/04/04 04:37:12;;;;;;;16.20;7.22;;;;;;;;;;5092828;28;20044;-64
2023/04/04 04:39:37;;;;;;;18.45;7.30;;;;;;;;;;5092651;28;20071;-68
2023/04/04 04:42:03;;;;;;;16.77;7.35;;;;;;;;;;5092769;28;20035;-73
2023/04/04 04:44:28;;;;;;;18.70;7.40;;;;;;;;;;5092739;28;20046;-73
2023/04/04 04:46:53;;;;;;;17.48;7.45;;;;;;;;;;5092787;28;20019;-69
2023/04/04 04:49:19;;;;;;;16.33;7.38;;;;;;;;;;5092670;28;20036;-64
2023/04/04 04:51:45;;;;;;;18.35;7.82;;;;;;;;;;5092821;28;20043;-63
2023/04/04 04:54:10;;;;;;;17.05;7.82;;;;;;;;;;5092647;28;20462;-66
2023/04/04 04:56:36;;;;;;;19.33;8.63;;;;;;;;;;5092688;28;20115;-73
2023/04/04 04:59:02;;;;;;;20.05;8.20;;;;;;;;;;5092076;28;20463;-73
2023/04/04 05:01:27;;;;;;;17.67;6.88;;;;;;;;;;5092381;28;20069;-72
2023/04/04 05:03:53;;;;;;;16.40;6.55;;;;;;;;;;5092150;28;20052;-67
2023/04/04 05:06:19;;;;;;;22.38;6.20;;;;;;;;;;5092386;28;20039;-74
2023/04/04 05:08:44;;;;;;;17.65;6.30;;;;;;;;;;5092067;28;20020;-74
2023/04/04 05:11:10;;;;;;;14.27;5.82;;;;;;;;;;5092260;28;20028;-67
2023/04/04 05:13:36;;;;;;;14.85;5.78;;;;;;;;;;5092151;28;20392;-76
2023/04/04 05:16:02;;;;;;;15.13;4.80;;;;;;;;;;5091610;28;20032;-74
2023/04/04 05:18:27;;;;;;;12.98;5.28;;;;;;;;;;5092077;28;20039;-72
2023/04/04 05:20:53;;;;;;;14.15;4.90;;;;;;;;;;5092178;28;20024;-72
2023/04/04 05:23:18;;;;;;;11.70;5.25;;;;;;;;;;5091836;28;20125;-68
2023/04/04 05:25:44;;;;;;;11.23;4.93;;;;;;;;;;5091924;28;20052;-63
2023/04/04 05:28:09;;;;;;;13.80;5.55;;;;;;;;;;5092009;28;20111;-68
2023/04/04 05:30:35;;;;;;;13.77;5.80;;;;;;;;;;5091644;28;20046;-67
2023/04/04 05:33:00;;;;;;;16.23;5.38;;;;;;;;;;5090888;28;20024;-71
2023/04/04 05:35:25;;;;;;;16.85;6.40;;;;;;;;;;5092178;28;20031;-67
2023/04/04 05:37:51;;;;;;;14.93;5.28;;;;;;;;;;5091611;28;20020;-68
2023/04/04 05:40:16;;;;;;;14.48;5.68;;;;;;;;;;5092011;28;20467;-62
2023/04/04 05:42:42;;;;;;;13.52;4.82;;;;;;;;;;5091660;28;20093;-65
2023/04/04 05:45:09;;;;;;;19.80;6.38;;;;;;;;;;5090491;28;20063;-66
2023/04/04 05:47:35;;;;;;;32.20;7.35;;;;;;;;;;5091258;28;20030;-63
2023/04/04 05:50:00;;;;;;;16.25;5.00;;;;;;;;;;5091608;28;20020;-63
2023/04/04 05:52:26;;;;;;;16.70;5.75;;;;;;;;;;5073196;28;20359;-66
2023/04/04 05:54:51;;;;;;;18.60;5.80;;;;;;;;;;5091486;28;20088;-67
2023/04/04 05:57:16;;;;;;;17.17;4.22;;;;;;;;;;5091290;28;20043;-68
2023/04/04 05:59:42;;;;;;;12.80;3.67;;;;;;;;;;5091393;28;20076;-64
2023/04/04 06:02:07;;;;;;;10.07;3.30;;;;;;;;;;5091436;28;20024;-64
2023/04/04 06:04:33;;;;;;;6.95;3.00;;;;;;;;;;5091189;28;20494;-67
2023/04/04 06:06:59;;;;;;;10.95;3.00;;;;;;;;;;5091337;28;20497;-77
2023/04/04 06:09:26;;;;;;;5.85;3.00;;;;;;;;;;5091263;28;20440;-76
2023/04/04 06:11:51;;;;;;;12.68;7.32;;;;;;;;;;5091423;28;20020;-77
2023/04/04 06:14:17;;;;;;;32.17;13.82;;;;;;;;;;5091590;28;20126;-63
2023/04/04 06:16:42;;;;;;;12.88;5.13;;;;;;;;;;5091260;28;20024;-64
2023/04/04 06:19:08;;;;;;;14.57;6.05;;;;;;;;;;5091381;28;20031;-63
2023/04/04 06:21:33;;;;;;;9.32;5.65;;;;;;;;;;5090957;28;20016;-66
2023/04/04 06:23:59;;;;;;;6.57;2.63;;;;;;;;;;5091387;28;20486;-64
2023/04/04 06:26:25;;;;;;;24.30;14.52;;;;;;;;;;5091234;28;20070;-70
2023/04/04 06:28:51;;;;;;;7.38;3.47;;;;;;;;;;5091425;28;20116;-73
2023/04/04 06:31:16;;;;;;;9.07;2.80;;;;;;;;;;5090993;28;20447;-63
2023/04/04 06:33:42;;;;;;;6.15;2.75;;;;;;;;;;5091362;28;20074;-67
2023/04/04 06:36:08;;;;;;;9.35;5.05;;;;;;;;;;5091117;28;20074;-71
2023/04/04 06:38:33;;;;;;;11.43;5.80;;;;;;;;;;5091200;28;20021;-65
2023/04/04 06:40:58;;;;;;;6.80;2.92;;;;;;;;;;5091068;28;20024;-70
2023/04/04 06:43:24;;;;;;;8.32;3.75;;;;;;;;;;5091196;28;20032;-68
2023/04/04 06:45:50;;;;;;;7.57;3.00;;;;;;;;;;5092914;28;20044;-64
2023/04/04 06:48:15;;;;;;;11.35;3.47;;;;;;;;;;5095238;28;20106;-67
2023/04/04 06:50:41;;;;;;;9.82;3.92;;;;;;;;;;5095148;28;20051;-67
2023/04/04 06:53:06;;;;;;;10.05;5.10;;;;;;;;;;5095081;28;20027;-64
2023/04/04 06:55:33;;;;;;;7.95;3.10;;;;;;;;;;5093433;28;20189;-68
2023/04/04 06:57:58;;;;;;;7.88;3.70;;;;;;;;;;5094798;28;20094;-65
2023/04/04 07:00:24;;;;;;;11.43;4.55;;;;;;;;;;5097694;28;20031;-71
2023/04/04 07:02:56;;;;;;;10.05;4.35;;;;;;;;;;5115375;28;20031;-66
2023/04/04 07:05:22;;;;;;;11.90;4.80;;;;;;;;;;5114953;28;20551;-73
2023/04/04 07:07:53;;;;;;;9.68;4.05;;;;;;;;;;5114872;28;20048;-68
2023/04/04 07:10:19;;;;;;;9.50;3.95;;;;;;;;;;5115083;28;20031;-77
2023/04/04 07:12:44;;;;;;;7.68;3.15;;;;;;;;;;5115081;28;20023;-77
2023/04/04 07:15:10;;;;;;;9.00;2.97;;;;;;;;;;5114940;27;20011;-78
2023/04/04 07:17:37;;;;;;;4.32;2.30;;;;;;;;;;5115024;28;20035;-77
2023/04/04 07:20:04;;;;;;;5.25;2.60;;;;;;;;;;5114466;28;20470;-74
2023/04/04 07:22:30;;;;;;;6.65;2.97;;;;;;;;;;5114855;28;20107;-75
2023/04/04 07:24:55;;;;;;;7.15;3.30;;;;;;;;;;5114971;28;20481;-78
2023/04/04 07:27:21;;;;;;;9.32;3.13;;;;;;;;;;5114663;28;20385;-75
2023/04/04 07:29:46;;;;;;;9.82;3.65;;;;;;;;;;5114805;28;20020;-78
2023/04/04 07:32:12;;;;;;;5.97;2.38;;;;;;;;;;5113781;28;20047;-76
2023/04/04 07:34:37;;;;;;;7.45;2.30;;;;;;;;;;5114154;28;20057;-79
2023/04/04 07:37:03;;;;;;;4.95;2.38;;;;;;;;;;5108571;28;20042;-70
2023/04/04 07:39:28;;;;;;;6.57;2.10;;;;;;;;;;5111798;28;20440;-72
2023/04/04 07:41:54;;;;;;;5.53;2.42;;;;;;;;;;5117513;28;20474;-77
2023/04/04 07:44:19;;;;;;;5.13;2.17;;;;;;;;;;5113459;28;20051;-80
2023/04/04 07:46:45;;;;;;;5.30;2.13;;;;;;;;;;5113506;28;20035;-71
2023/04/04 07:49:11;;;;;;;8.75;2.10;;;;;;;;;;5112959;28;20015;-70
2023/04/04 07:51:37;;;;;;;4.18;1.80;;;;;;;;;;5114664;28;20422;-67
2023/04/04 07:54:02;;;;;;;6.90;2.60;;;;;;;;;;5114650;28;20058;-80
2023/04/04 07:56:28;;;;;;;5.40;2.40;;;;;;;;;;5114391;28;20351;-75
2023/04/04 07:58:53;;;;;;;6.18;2.15;;;;;;;;;;5114122;28;20031;-74
2023/04/04 08:01:19;;;;;;;6.50;2.20;;;;;;;;;;5114462;28;20068;-78
2023/04/04 08:03:44;;;;;;;4.72;2.20;;;;;;;;;;5111003;28;20482;-82
2023/04/04 08:06:10;;;;;;;6.13;2.00;;;;;;;;;;5114639;28;20363;-70
2023/04/04 08:08:35;;;;;;;8.50;2.88;;;;;;;;;;5113858;28;20488;-85
2023/04/04 08:11:01;;;;;;;7.22;2.17;;;;;;;;;;5114030;28;20075;-71
2023/04/04 08:13:26;;;;;;;4.78;2.25;;;;;;;;;;5113921;28;20539;-63
2023/04/04 08:15:52;;;;;;;6.38;1.80;;;;;;;;;;5113749;28;20034;-63
2023/04/04 08:18:18;;;;;;;11.77;2.38;;;;;;;;;;5113732;28;20027;-75
2023/04/04 08:20:43;;;;;;;8.80;2.03;;;;;;;;;;5113867;28;20424;-66
2023/04/04 08:23:09;;;;;;;12.35;3.28;;;;;;;;;;5113748;27;20034;-84
2023/04/04 08:25:35;;;;;;;3.20;1.55;;;;;;;;;;5111489;28;20027;-71
2023/04/04 08:28:04;;;;;;;7.07;2.17;;;;;;;;;;5113567;28;20028;-71
2023/04/04 08:30:29;;;;;;;10.55;4.10;;;;;;;;;;5113457;28;20107;-63
2023/04/04 08:32:55;;;;;;;12.25;4.07;;;;;;;;;;5113279;28;20184;-79
2023/04/04 08:35:20;;;;;;;5.40;2.63;;;;;;;;;;5113384;28;20027;-79
2023/04/04 08:37:46;;;;;;;5.60;1.70;;;;;;;;;;5113375;28;20106;-65
2023/04/04 08:40:12;;;;;;;6.22;1.58;;;;;;;;;;5113263;28;20070;-70
2023/04/04 08:42:40;;;;;;;3.60;1.42;;;;;;;;;;5096400;28;20081;-76
2023/04/04 08:45:08;;;;;;;4.75;1.30;;;;;;;;;;5112399;28;20024;-66
2023/04/04 08:47:36;;;;;;;6.53;1.60;;;;;;;;;;5112970;28;20529;-69
2023/04/04 08:50:06;;;;;;;4.38;1.60;;;;;;;;;;5111564;28;20110;-68
2023/04/04 08:52:33;;;;;;;4.72;1.58;;;;;;;;;;5111419;28;20039;-74
2023/04/04 08:55:00;;;;;;;2.15;1.13;;;;;;;;;;5112874;28;20034;-68
2023/04/04 08:57:26;;;;;;;4.55;1.90;;;;;;;;;;5108945;28;20511;-63
2023/04/04 08:59:52;;;;;;;4.55;1.70;;;;;;;;;;5105988;28;20106;-64
2023/04/04 09:02:42;;;;;;;2.45;1.83;;;;;;;;;;5111355;28;20062;-70
2023/04/04 09:05:09;;;;;;;5.53;1.42;;;;;;;;;;5111404;28;20502;-66
2023/04/04 09:07:35;;;;;;;4.93;1.67;;;;;;;;;;5112585;27;20036;-68
2023/04/04 09:10:02;;;;;;;6.75;1.88;;;;;;;;;;5112623;28;20103;-69
2023/04/04 09:12:31;;;;;;;5.25;1.80;;;;;;;;;;5111744;28;20024;-63
2023/04/04 09:14:58;;;;;;;6.90;3.78;;;;;;;;;;5111722;28;20024;-75
2023/04/04 09:17:24;;;;;;;7.57;2.00;;;;;;;;;;5111720;28;20035;-71
2023/04/04 09:19:49;;;;;;;6.45;2.17;;;;;;;;;;5111831;28;20461;-73
2023/04/04 09:22:16;;;;;;;4.80;1.55;;;;;;;;;;5111940;28;20511;-63
2023/04/04 09:24:42;;;;;;;10.48;1.92;;;;;;;;;;5112285;28;20027;-63
2023/04/04 09:27:09;;;;;;;6.10;2.13;;;;;;;;;;5112119;28;20311;-70
2023/04/04 09:29:37;;;;;;;6.45;3.10;;;;;;;;;;5110620;28;20034;-75
2023/04/04 09:32:03;;;;;;;6.57;2.00;;;;;;;;;;5111006;28;20474;-76
2023/04/04 09:34:29;;;;;;;3.60;1.70;;;;;;;;;;5109978;28;20089;-76
2023/04/04 09:36:56;;;;;;;4.38;2.20;;;;;;;;;;5111386;28;20020;-70
2023/04/04 09:39:22;;;;;;;5.95;2.65;;;;;;;;;;5112208;28;20414;-70
2023/04/04 09:41:48;;;;;;;5.85;2.60;;;;;;;;;;5110423;28;20153;-71
2023/04/04 09:44:15;;;;;;;6.80;2.35;;;;;;;;;;5111735;28;20483;-76
2023/04/04 09:46:41;;;;;;;4.65;1.70;;;;;;;;;;5112040;28;20340;-77
2023/04/04 09:49:11;;;;;;;4.63;1.70;;;;;;;;;;5110869;28;20032;-76
2023/04/04 09:51:38;;;;;;;5.75;1.40;;;;;;;;;;5112277;28;20493;-76
2023/04/04 09:54:05;;;;;;;4.00;1.65;;;;;;;;;;5112125;28;20035;-66
2023/04/04 09:56:37;;;;;;;2.85;1.45;;;;;;;;;;5112098;28;20038;-73
2023/04/04 09:59:05;;;;;;;3.47;1.58;;;;;;;;;;5094151;28;20050;-76
2023/04/04 10:01:32;;;;;;;4.13;2.30;;;;;;;;;;5107590;28;20405;-68
2023/04/04 10:03:58;;;;;;;5.03;2.00;;;;;;;;;;5091434;28;20381;-64
2023/04/04 10:06:24;;;;;;;8.68;1.73;;;;;;;;;;5091537;28;20027;-75
2023/04/04 10:08:50;;;;;;;7.68;2.15;;;;;;;;;;5091270;28;20020;-74
2023/04/04 10:11:28;;;;;;;4.28;1.70;;;;;;;;;;5091497;28;20103;-66
2023/04/04 10:13:56;;;;;;;5.57;2.95;;;;;;;;;;5090249;28;20038;-70
2023/04/04 10:16:23;;;;;;;10.23;7.80;;;;;;;;;;5091606;28;20030;-64
2023/04/04 10:18:50;;;;;;;9.43;2.08;;;;;;;;;;5090978;28;20538;-63
2023/04/04 10:21:16;;;;;;;3.47;1.70;;;;;;;;;;5091324;28;20436;-75
2023/04/04 10:23:45;;;;;;;6.25;1.45;;;;;;;;;;5089991;28;20028;-68
2023/04/04 10:26:11;;;;;;;10.45;1.50;;;;;;;;;;5091288;28;20422;-74
2023/04/04 10:28:37;;;;;;;4.10;1.90;;;;;;;;;;5090920;28;20035;-69
2023/04/04 10:31:21;;;;;;;5.45;1.67;;;;;;;;;;5091320;28;20074;-73
2023/04/04 10:33:53;;;;;;;6.13;1.90;;;;;;;;;;5091220;28;20027;-67
2023/04/04 10:36:29;;;;;;;4.07;2.00;;;;;;;;;;5091504;28;20067;-65
2023/04/04 10:39:07;;;;;;;5.60;2.13;;;;;;;;;;5091137;28;20028;-64
2023/04/04 10:41:34;;;;;;;8.80;1.90;;;;;;;;;;5091036;28;20024;-76
2023/04/04 10:44:08;;;;;;;4.25;1.60;;;;;;;;;;5091052;28;20017;-70
2023/04/04 10:46:36;;;;;;;10.23;1.85;;;;;;;;;;5090469;28;20079;-66
2023/04/04 10:49:02;;;;;;;5.53;1.80;;;;;;;;;;5090863;28;20483;-74
2023/04/04 10:51:29;;;;;;;8.15;2.25;;;;;;;;;;5091100;28;20020;-63
2023/04/04 10:53:55;;;;;;;6.53;1.90;;;;;;;;;;5090694;28;20134;-76
2023/04/04 10:56:21;;;;;;;5.35;2.30;;;;;;;;;;5090756;28;20042;-67
2023/04/04 10:58:48;;;;;;;7.25;1.52;;;;;;;;;;5089329;28;20020;-68
2023/04/04 11:01:19;;;;;;;4.80;1.60;;;;;;;;;;5090876;28;20038;-73
2023/04/04 11:04:17;;;;;;;6.47;2.00;;;;;;;;;;5090739;28;20032;-67
2023/04/04 11:07:16;;;;;;;4.07;2.20;;;;;;;;;;5090742;28;20443;-73
2023/04/04 11:09:55;;;;;;;4.03;1.40;;;;;;;;;;5090672;28;20085;-71
2023/04/04 11:12:37;;;;;;;4.93;2.17;;;;;;;;;;5090829;28;20115;-77
2023/04/04 11:15:03;;;;;;;4.03;1.67;;;;;;;;;;5091049;28;20020;-73
2023/04/04 11:17:47;;;;;;;3.22;1.38;;;;;;;;;;5091046;28;20399;-74
2023/04/04 11:20:18;;;;;;;3.10;1.60;;;;;;;;;;5090888;28;20054;-70
2023/04/04 11:22:44;;;;;;;4.30;1.60;;;;;;;;;;5090803;28;20069;-68
2023/04/04 11:25:32;;;;;;;5.03;1.98;;;;;;;;;;5090466;28;20039;-63
2023/04/04 11:28:02;;;;;;;3.03;1.63;;;;;;;;;;5090430;28;20032;-64
2023/04/04 11:30:28;;;;;;;6.43;1.85;;;;;;;;;;5090388;28;20089;-63
2023/04/04 11:32:58;;;;;;;4.20;1.63;;;;;;;;;;5093575;28;20466;-67
2023/04/04 11:35:24;;;;;;;6.88;1.42;;;;;;;;;;5094359;28;20024;-66
2023/04/04 11:37:49;;;;;;;9.85;1.88;;;;;;;;;;5094094;28;20034;-70
2023/04/04 11:40:16;;;;;;;5.35;1.52;;;;;;;;;;5093890;28;20028;-71
2023/04/04 11:42:42;;;;;;;3.72;1.48;;;;;;;;;;5094249;28;20028;-71
2023/04/04 11:45:10;;;;;;;3.97;1.60;;;;;;;;;;5094198;28;20023;-63
2023/04/04 11:47:38;;;;;;;4.43;1.70;;;;;;;;;;5094013;28;20494;-66
2023/04/04 11:50:08;;;;;;;3.75;1.63;;;;;;;;;;5094082;28;20032;-70
2023/04/04 11:52:34;;;;;;;3.55;1.38;;;;;;;;;;5093907;28;20032;-74
2023/04/04 11:54:59;;;;;;;6.43;1.83;;;;;;;;;;5093675;28;20020;-69
2023/04/04 11:57:26;;;;;;;2.47;1.40;;;;;;;;;;5093798;28;20039;-75
2023/04/04 11:59:52;;;;;;;5.95;1.42;;;;;;;;;;5093945;28;20032;-71
2023/04/04 12:02:26;;;;;;;3.85;1.40;;;;;;;;;;5093803;28;20035;-72
2023/04/04 12:04:52;;;;;;;4.40;1.60;;;;;;;;;;5093409;28;20081;-74
2023/04/04 12:07:18;;;;;;;4.47;1.50;;;;;;;;;;5093640;28;20402;-65
2023/04/04 12:09:44;;;;;;;8.68;4.03;;;;;;;;;;5091887;28;20028;-63
2023/04/04 12:12:15;;;;;;;3.30;1.45;;;;;;;;;;5093661;28;20027;-74
2023/04/04 12:14:41;;;;;;;3.13;1.60;;;;;;;;;;5093535;28;20047;-75
2023/04/04 12:17:06;;;;;;;3.05;1.58;;;;;;;;;;5093486;28;20024;-72
2023/04/04 12:19:38;;;;;;;4.07;1.77;;;;;;;;;;5093438;28;20031;-74
2023/04/04 12:22:04;;;;;;;3.33;2.20;;;;;;;;;;5093586;28;20059;-70
2023/04/04 12:24:30;;;;;;;3.97;1.63;;;;;;;;;;5093045;28;20064;-73
2023/04/04 12:26:57;;;;;;;4.50;1.60;;;;;;;;;;5093035;28;20028;-69
2023/04/04 12:29:25;;;;;;;5.80;1.88;;;;;;;;;;5093188;28;20031;-74
2023/04/04 12:31:51;;;;;;;5.63;1.38;;;;;;;;;;5093063;28;20102;-69
2023/04/04 12:34:27;;;;;;;3.00;1.52;;;;;;;;;;5091694;28;20032;-71
2023/04/04 12:36:55;;;;;;;4.25;1.70;;;;;;;;;;5093165;28;20085;-75
2023/04/04 12:39:21;;;;;;;5.57;2.13;;;;;;;;;;5092793;28;20028;-72
2023/04/04 12:41:51;;;;;;;4.15;2.20;;;;;;;;;;5091695;28;20024;-64
2023/04/04 12:44:26;;;;;;;10.20;4.63;;;;;;;;;;5092889;28;20433;-69
2023/04/04 12:46:56;;;;;;;9.27;4.95;;;;;;;;;;5092909;28;20032;-70
2023/04/04 12:49:21;;;;;;;3.13;1.50;;;;;;;;;;5092736;28;20024;-70
2023/04/04 12:51:47;;;;;;;6.25;1.50;;;;;;;;;;5092577;28;20084;-63
2023/04/04 12:54:32;;;;;;;8.35;2.30;;;;;;;;;;5092437;28;20020;-63
2023/04/04 12:56:58;;;;;;;6.47;3.08;;;;;;;;;;5092797;28;20738;-69
2023/04/04 12:59:31;;;;;;;11.77;5.68;;;;;;;;;;5092301;28;20494;-63
2023/04/04 13:02:06;;;;;;;33.45;19.73;;;;;;;;;;5105606;28;20024;-75
2023/04/04 13:04:32;;;;;;;5.88;2.47;;;;;;;;;;5112691;28;20028;-68
2023/04/04 13:06:59;;;;;;;59.10;19.35;;;;;;;;;;5112821;28;20546;-64
2023/04/04 13:09:25;;;;;;;5.72;2.70;;;;;;;;;;5112840;28;20392;-67
2023/04/04 13:12:03;;;;;;;21.40;8.65;;;;;;;;;;5112797;28;20470;-64
2023/04/04 13:14:55;;;;;;;13.48;6.45;;;;;;;;;;5112864;28;20115;-67
2023/04/04 13:17:21;;;;;;;5.55;2.20;;;;;;;;;;5112791;28;20061;-71
2023/04/04 13:19:46;;;;;;;5.15;1.92;;;;;;;;;;5112709;28;20033;-69
2023/04/04 13:22:12;;;;;;;12.07;2.50;;;;;;;;;;5112421;28;20092;-66
2023/04/04 13:24:37;;;;;;;6.97;1.83;;;;;;;;;;5107911;28;20391;-68
2023/04/04 13:27:03;;;;;;;5.47;2.45;;;;;;;;;;5109904;28;20026;-68
2023/04/04 13:29:28;;;;;;;6.25;1.63;;;;;;;;;;5111960;28;20034;-75
2023/04/04 13:31:54;;;;;;;5.47;2.20;;;;;;;;;;5111887;27;20130;-73
2023/04/04 13:34:22;;;;;;;5.28;2.00;;;;;;;;;;5111919;28;20219;-74
2023/04/04 13:36:47;;;;;;;4.68;2.00;;;;;;;;;;5111596;28;20012;-77
2023/04/04 13:39:12;;;;;;;9.48;3.25;;;;;;;;;;5109606;28;20030;-70
2023/04/04 13:41:38;;;;;;;6.38;2.13;;;;;;;;;;5111459;28;20019;-70
2023/04/04 13:44:03;;;;;;;5.60;2.00;;;;;;;;;;5110089;28;20378;-68
2023/04/04 13:46:29;;;;;;;4.10;2.00;;;;;;;;;;5108781;28;20035;-67
2023/04/04 13:48:54;;;;;;;5.60;2.30;;;;;;;;;;5111080;28;20020;-74
2023/04/04 13:51:20;;;;;;;4.95;2.42;;;;;;;;;;5109764;28;20028;-76
2023/04/04 13:53:45;;;;;;;8.15;3.25;;;;;;;;;;5110745;28;20027;-67
2023/04/04 13:56:11;;;;;;;3.35;1.60;;;;;;;;;;5111061;28;20027;-63
2023/04/04 13:58:36;;;;;;;6.82;2.10;;;;;;;;;;5107848;28;20027;-63
2023/04/04 14:01:05;;;;;;;4.60;2.17;;;;;;;;;;5110541;28;20050;-66
2023/04/04 14:03:31;;;;;;;5.97;2.20;;;;;;;;;;5109559;28;20023;-70
2023/04/04 14:05:56;;;;;;;5.32;2.05;;;;;;;;;;5109221;28;20039;-72
2023/04/04 14:08:22;;;;;;;6.15;2.13;;;;;;;;;;5110874;28;20056;-70
2023/04/04 14:10:47;;;;;;;5.82;2.83;;;;;;;;;;5111879;28;20027;-76
2023/04/04 14:13:13;;;;;;;7.15;2.10;;;;;;;;;;5111233;28;20351;-67
2023/04/04 14:15:38;;;;;;;6.35;2.40;;;;;;;;;;5110387;28;20020;-71
2023/04/04 14:18:04;;;;;;;7.70;2.90;;;;;;;;;;5111753;28;20027;-64
2023/04/04 14:20:29;;;;;;;8.25;2.88;;;;;;;;;;5111323;28;20228;-76
2023/04/04 14:22:55;;;;;;;4.88;2.55;;;;;;;;;;5111502;28;20038;-75
2023/04/04 14:25:21;;;;;;;7.07;2.50;;;;;;;;;;5111734;28;20026;-76
2023/04/04 14:27:46;;;;;;;4.22;1.80;;;;;;;;;;5111257;28;20039;-76
2023/04/04 14:30:12;;;;;;;3.38;1.50;;;;;;;;;;5110965;28;20356;-70
2023/04/04 14:32:37;;;;;;;5.47;1.45;;;;;;;;;;5111081;28;20032;-75